sensor_id;sensor_type;location;lat;lon;timestamp;P1;durP1;ratioP1;P2;durP2;ratioP2
28174;SDS011;59417;44.788;10.334;2024-03-02T00:01:03;31.58;;;16.88;;
28174;SDS011;59417;44.788;10.334;2024-03-02T00:03:42;33.87;;;18.97;;
28174;SDS011;59417;44.788;10.334;2024-03-02T00:06:09;32.60;;;18.42;;
28174;SDS011;59417;44.788;10.334;2024-03-02T00:08:35;28.58;;;17.98;;
28174;SDS011;59417;44.788;10.334;2024-03-02T00:11:01;28.90;;;17.73;;
28174;SDS011;59417;44.788;10.334;2024-03-02T00:13:30;30.48;;;19.38;;
28174;SDS011;59417;44.788;10.334;2024-03-02T00:15:57;31.35;;;18.98;;
28174;SDS011;59417;44.788;10.334;2024-03-02T00:20:56;29.77;;;19.38;;
28174;SDS011;59417;44.788;10.334;2024-03-02T00:23:23;31.02;;;20.23;;
28174;SDS011;59417;44.788;10.334;2024-03-02T00:30:58;37.05;;;20.38;;
28174;SDS011;59417;44.788;10.334;2024-03-02T00:33:36;27.77;;;18.83;;
28174;SDS011;59417;44.788;10.334;2024-03-02T00:36:10;31.42;;;19.30;;
28174;SDS011;59417;44.788;10.334;2024-03-02T00:38:46;34.10;;;19.73;;
28174;SDS011;59417;44.788;10.334;2024-03-02T00:41:18;37.22;;;20.58;;
28174;SDS011;59417;44.788;10.334;2024-03-02T00:43:58;31.95;;;19.65;;
28174;SDS011;59417;44.788;10.334;2024-03-02T00:46:27;28.63;;;19.55;;
28174;SDS011;59417;44.788;10.334;2024-03-02T00:49:00;38.97;;;20.67;;
28174;SDS011;59417;44.788;10.334;2024-03-02T00:51:27;33.45;;;20.58;;
28174;SDS011;59417;44.788;10.334;2024-03-02T00:53:57;33.50;;;20.10;;
28174;SDS011;59417;44.788;10.334;2024-03-02T00:56:24;34.10;;;20.08;;
28174;SDS011;59417;44.788;10.334;2024-03-02T00:58:51;33.83;;;20.70;;
28174;SDS011;59417;44.788;10.334;2024-03-02T01:01:17;29.42;;;19.95;;
28174;SDS011;59417;44.788;10.334;2024-03-02T01:03:44;31.02;;;20.77;;
28174;SDS011;59417;44.788;10.334;2024-03-02T01:06:11;29.02;;;20.25;;
28174;SDS011;59417;44.788;10.334;2024-03-02T01:08:39;27.40;;;20.27;;
28174;SDS011;59417;44.788;10.334;2024-03-02T01:11:14;29.17;;;20.27;;
28174;SDS011;59417;44.788;10.334;2024-03-02T01:13:40;31.73;;;20.23;;
28174;SDS011;59417;44.788;10.334;2024-03-02T01:16:06;28.50;;;20.08;;
28174;SDS011;59417;44.788;10.334;2024-03-02T01:18:31;33.10;;;20.45;;
28174;SDS011;59417;44.788;10.334;2024-03-02T01:20:58;30.02;;;19.75;;
28174;SDS011;59417;44.788;10.334;2024-03-02T01:23:23;27.85;;;19.77;;
28174;SDS011;59417;44.788;10.334;2024-03-02T01:25:49;25.75;;;19.70;;
28174;SDS011;59417;44.788;10.334;2024-03-02T01:28:16;29.20;;;19.08;;
28174;SDS011;59417;44.788;10.334;2024-03-02T01:30:42;31.95;;;19.58;;
28174;SDS011;59417;44.788;10.334;2024-03-02T01:33:07;28.05;;;18.70;;
28174;SDS011;59417;44.788;10.334;2024-03-02T01:35:33;28.35;;;20.27;;
28174;SDS011;59417;44.788;10.334;2024-03-02T01:38:02;32.53;;;19.23;;
28174;SDS011;59417;44.788;10.334;2024-03-02T01:40:32;28.90;;;19.40;;
28174;SDS011;59417;44.788;10.334;2024-03-02T01:43:01;31.02;;;21.17;;
28174;SDS011;59417;44.788;10.334;2024-03-02T01:45:28;33.10;;;22.02;;
28174;SDS011;59417;44.788;10.334;2024-03-02T01:50:53;34.28;;;22.17;;
28174;SDS011;59417;44.788;10.334;2024-03-02T01:53:18;35.05;;;22.65;;
28174;SDS011;59417;44.788;10.334;2024-03-02T01:55:44;30.83;;;21.02;;
28174;SDS011;59417;44.788;10.334;2024-03-02T01:58:10;37.42;;;22.92;;
28174;SDS011;59417;44.788;10.334;2024-03-02T02:00:35;37.25;;;23.98;;
28174;SDS011;59417;44.788;10.334;2024-03-02T02:03:02;33.03;;;23.73;;
28174;SDS011;59417;44.788;10.334;2024-03-02T02:05:28;36.05;;;23.23;;
28174;SDS011;59417;44.788;10.334;2024-03-02T02:07:53;38.85;;;23.23;;
28174;SDS011;59417;44.788;10.334;2024-03-02T02:10:19;33.00;;;23.35;;
28174;SDS011;59417;44.788;10.334;2024-03-02T02:12:48;34.30;;;23.73;;
28174;SDS011;59417;44.788;10.334;2024-03-02T02:15:29;38.37;;;23.87;;
28174;SDS011;59417;44.788;10.334;2024-03-02T02:17:56;35.83;;;26.15;;
28174;SDS011;59417;44.788;10.334;2024-03-02T02:20:22;32.20;;;24.45;;
28174;SDS011;59417;44.788;10.334;2024-03-02T02:23:04;38.80;;;24.65;;
28174;SDS011;59417;44.788;10.334;2024-03-02T02:25:46;31.05;;;25.05;;
28174;SDS011;59417;44.788;10.334;2024-03-02T02:28:11;33.63;;;25.67;;
28174;SDS011;59417;44.788;10.334;2024-03-02T02:30:37;43.85;;;26.77;;
28174;SDS011;59417;44.788;10.334;2024-03-02T02:33:02;35.72;;;25.20;;
28174;SDS011;59417;44.788;10.334;2024-03-02T02:35:28;34.47;;;25.55;;
28174;SDS011;59417;44.788;10.334;2024-03-02T02:38:04;37.20;;;26.15;;
28174;SDS011;59417;44.788;10.334;2024-03-02T02:40:42;36.47;;;25.08;;
28174;SDS011;59417;44.788;10.334;2024-03-02T02:43:17;38.42;;;24.77;;
28174;SDS011;59417;44.788;10.334;2024-03-02T02:45:43;35.53;;;25.08;;
28174;SDS011;59417;44.788;10.334;2024-03-02T02:48:08;31.23;;;24.30;;
28174;SDS011;59417;44.788;10.334;2024-03-02T02:50:34;33.78;;;25.27;;
28174;SDS011;59417;44.788;10.334;2024-03-02T02:53:00;31.98;;;24.50;;
28174;SDS011;59417;44.788;10.334;2024-03-02T02:55:26;36.97;;;24.13;;
28174;SDS011;59417;44.788;10.334;2024-03-02T02:57:55;36.80;;;23.95;;
28174;SDS011;59417;44.788;10.334;2024-03-02T03:00:35;32.30;;;24.45;;
28174;SDS011;59417;44.788;10.334;2024-03-02T03:03:01;40.83;;;25.65;;
28174;SDS011;59417;44.788;10.334;2024-03-02T03:05:42;32.25;;;23.60;;
28174;SDS011;59417;44.788;10.334;2024-03-02T03:08:08;30.85;;;23.63;;
28174;SDS011;59417;44.788;10.334;2024-03-02T03:10:42;32.95;;;23.90;;
28174;SDS011;59417;44.788;10.334;2024-03-02T03:13:08;37.63;;;25.13;;
28174;SDS011;59417;44.788;10.334;2024-03-02T03:15:34;34.00;;;24.52;;
28174;SDS011;59417;44.788;10.334;2024-03-02T03:18:02;34.70;;;24.42;;
28174;SDS011;59417;44.788;10.334;2024-03-02T03:20:29;33.17;;;23.48;;
28174;SDS011;59417;44.788;10.334;2024-03-02T03:22:57;30.73;;;23.50;;
28174;SDS011;59417;44.788;10.334;2024-03-02T03:25:30;34.63;;;23.40;;
28174;SDS011;59417;44.788;10.334;2024-03-02T03:27:55;30.25;;;21.42;;
28174;SDS011;59417;44.788;10.334;2024-03-02T03:30:21;24.35;;;20.45;;
28174;SDS011;59417;44.788;10.334;2024-03-02T03:32:47;24.50;;;19.35;;
28174;SDS011;59417;44.788;10.334;2024-03-02T03:35:15;27.15;;;20.13;;
28174;SDS011;59417;44.788;10.334;2024-03-02T03:37:41;30.60;;;20.73;;
28174;SDS011;59417;44.788;10.334;2024-03-02T03:40:07;29.42;;;20.65;;
28174;SDS011;59417;44.788;10.334;2024-03-02T03:42:36;32.30;;;22.27;;
28174;SDS011;59417;44.788;10.334;2024-03-02T03:45:12;31.42;;;22.15;;
28174;SDS011;59417;44.788;10.334;2024-03-02T03:48:03;26.75;;;19.65;;
28174;SDS011;59417;44.788;10.334;2024-03-02T03:50:32;33.70;;;20.15;;
28174;SDS011;59417;44.788;10.334;2024-03-02T03:53:24;29.75;;;21.42;;
28174;SDS011;59417;44.788;10.334;2024-03-02T03:55:50;33.92;;;21.05;;
28174;SDS011;59417;44.788;10.334;2024-03-02T03:58:15;33.67;;;21.67;;
28174;SDS011;59417;44.788;10.334;2024-03-02T04:00:42;30.63;;;20.95;;
28174;SDS011;59417;44.788;10.334;2024-03-02T04:03:08;27.08;;;19.58;;
28174;SDS011;59417;44.788;10.334;2024-03-02T04:05:38;29.42;;;19.55;;
28174;SDS011;59417;44.788;10.334;2024-03-02T04:08:04;27.95;;;18.88;;
28174;SDS011;59417;44.788;10.334;2024-03-02T04:10:30;30.58;;;21.13;;
28174;SDS011;59417;44.788;10.334;2024-03-02T04:12:56;28.83;;;19.27;;
28174;SDS011;59417;44.788;10.334;2024-03-02T04:15:22;28.30;;;19.88;;
28174;SDS011;59417;44.788;10.334;2024-03-02T04:17:48;29.90;;;18.75;;
28174;SDS011;59417;44.788;10.334;2024-03-02T04:20:17;25.80;;;20.10;;
28174;SDS011;59417;44.788;10.334;2024-03-02T04:22:43;26.23;;;18.88;;
28174;SDS011;59417;44.788;10.334;2024-03-02T04:25:08;28.50;;;21.60;;
28174;SDS011;59417;44.788;10.334;2024-03-02T04:27:37;25.90;;;19.15;;
28174;SDS011;59417;44.788;10.334;2024-03-02T04:30:06;29.98;;;20.08;;
28174;SDS011;59417;44.788;10.334;2024-03-02T04:32:35;26.30;;;19.45;;
28174;SDS011;59417;44.788;10.334;2024-03-02T04:35:11;24.43;;;17.47;;
28174;SDS011;59417;44.788;10.334;2024-03-02T04:37:37;27.48;;;18.92;;
28174;SDS011;59417;44.788;10.334;2024-03-02T04:40:04;27.92;;;20.77;;
28174;SDS011;59417;44.788;10.334;2024-03-02T04:42:36;28.40;;;19.17;;
28174;SDS011;59417;44.788;10.334;2024-03-02T04:45:02;24.73;;;18.90;;
28174;SDS011;59417;44.788;10.334;2024-03-02T04:47:28;25.35;;;18.80;;
28174;SDS011;59417;44.788;10.334;2024-03-02T04:49:57;27.88;;;19.92;;
28174;SDS011;59417;44.788;10.334;2024-03-02T04:52:22;27.63;;;20.58;;
28174;SDS011;59417;44.788;10.334;2024-03-02T04:54:48;31.00;;;18.70;;
28174;SDS011;59417;44.788;10.334;2024-03-02T04:57:32;26.08;;;19.63;;
28174;SDS011;59417;44.788;10.334;2024-03-02T04:59:58;27.13;;;19.30;;
28174;SDS011;59417;44.788;10.334;2024-03-02T05:02:23;27.30;;;19.60;;
28174;SDS011;59417;44.788;10.334;2024-03-02T05:04:49;25.55;;;18.30;;
28174;SDS011;59417;44.788;10.334;2024-03-02T05:07:26;23.80;;;18.25;;
28174;SDS011;59417;44.788;10.334;2024-03-02T05:09:55;25.95;;;18.73;;
28174;SDS011;59417;44.788;10.334;2024-03-02T05:12:21;26.80;;;19.30;;
28174;SDS011;59417;44.788;10.334;2024-03-02T05:14:48;28.75;;;19.80;;
28174;SDS011;59417;44.788;10.334;2024-03-02T05:17:13;25.73;;;20.55;;
28174;SDS011;59417;44.788;10.334;2024-03-02T05:19:39;27.25;;;18.73;;
28174;SDS011;59417;44.788;10.334;2024-03-02T05:22:04;33.28;;;19.73;;
28174;SDS011;59417;44.788;10.334;2024-03-02T05:24:30;25.60;;;19.65;;
28174;SDS011;59417;44.788;10.334;2024-03-02T05:26:56;25.88;;;20.23;;
28174;SDS011;59417;44.788;10.334;2024-03-02T05:29:22;24.90;;;19.52;;
28174;SDS011;59417;44.788;10.334;2024-03-02T05:31:56;22.73;;;18.10;;
28174;SDS011;59417;44.788;10.334;2024-03-02T05:34:22;25.83;;;18.15;;
28174;SDS011;59417;44.788;10.334;2024-03-02T05:36:50;24.88;;;19.33;;
28174;SDS011;59417;44.788;10.334;2024-03-02T05:39:16;25.95;;;18.13;;
28174;SDS011;59417;44.788;10.334;2024-03-02T05:41:41;30.40;;;19.92;;
28174;SDS011;59417;44.788;10.334;2024-03-02T05:44:07;24.13;;;18.73;;
28174;SDS011;59417;44.788;10.334;2024-03-02T05:46:34;24.15;;;17.83;;
28174;SDS011;59417;44.788;10.334;2024-03-02T05:49:05;22.40;;;18.20;;
28174;SDS011;59417;44.788;10.334;2024-03-02T05:51:33;26.15;;;18.98;;
28174;SDS011;59417;44.788;10.334;2024-03-02T05:53:58;22.45;;;18.15;;
28174;SDS011;59417;44.788;10.334;2024-03-02T05:56:24;25.00;;;18.60;;
28174;SDS011;59417;44.788;10.334;2024-03-02T05:58:50;24.00;;;17.60;;
28174;SDS011;59417;44.788;10.334;2024-03-02T06:01:33;23.58;;;17.80;;
28174;SDS011;59417;44.788;10.334;2024-03-02T06:03:59;23.95;;;16.80;;
28174;SDS011;59417;44.788;10.334;2024-03-02T06:06:25;21.80;;;16.08;;
28174;SDS011;59417;44.788;10.334;2024-03-02T06:08:51;20.08;;;17.10;;
28174;SDS011;59417;44.788;10.334;2024-03-02T06:11:18;26.60;;;17.85;;
28174;SDS011;59417;44.788;10.334;2024-03-02T06:13:45;20.15;;;15.85;;
28174;SDS011;59417;44.788;10.334;2024-03-02T06:16:10;18.48;;;16.42;;
28174;SDS011;59417;44.788;10.334;2024-03-02T06:18:36;19.77;;;16.20;;
28174;SDS011;59417;44.788;10.334;2024-03-02T06:21:02;18.75;;;15.20;;
28174;SDS011;59417;44.788;10.334;2024-03-02T06:23:28;28.02;;;17.23;;
28174;SDS011;59417;44.788;10.334;2024-03-02T06:25:54;19.20;;;15.27;;
28174;SDS011;59417;44.788;10.334;2024-03-02T06:28:19;17.55;;;15.65;;
28174;SDS011;59417;44.788;10.334;2024-03-02T06:30:46;19.33;;;16.55;;
28174;SDS011;59417;44.788;10.334;2024-03-02T06:33:11;22.40;;;16.55;;
28174;SDS011;59417;44.788;10.334;2024-03-02T06:35:44;17.05;;;15.07;;
28174;SDS011;59417;44.788;10.334;2024-03-02T06:38:09;18.17;;;15.43;;
28174;SDS011;59417;44.788;10.334;2024-03-02T06:40:35;20.75;;;15.70;;
28174;SDS011;59417;44.788;10.334;2024-03-02T06:43:02;19.88;;;15.57;;
28174;SDS011;59417;44.788;10.334;2024-03-02T06:45:28;21.38;;;15.95;;
28174;SDS011;59417;44.788;10.334;2024-03-02T06:47:55;20.65;;;15.18;;
28174;SDS011;59417;44.788;10.334;2024-03-02T06:50:22;19.08;;;15.45;;
28174;SDS011;59417;44.788;10.334;2024-03-02T06:52:47;19.98;;;16.30;;
28174;SDS011;59417;44.788;10.334;2024-03-02T06:55:13;20.65;;;15.98;;
28174;SDS011;59417;44.788;10.334;2024-03-02T06:57:48;19.73;;;16.63;;
28174;SDS011;59417;44.788;10.334;2024-03-02T07:00:13;20.73;;;16.23;;
28174;SDS011;59417;44.788;10.334;2024-03-02T07:02:39;20.63;;;16.27;;
28174;SDS011;59417;44.788;10.334;2024-03-02T07:05:07;21.20;;;15.45;;
28174;SDS011;59417;44.788;10.334;2024-03-02T07:07:34;20.05;;;16.35;;
28174;SDS011;59417;44.788;10.334;2024-03-02T07:10:04;22.13;;;16.75;;
28174;SDS011;59417;44.788;10.334;2024-03-02T07:12:32;26.00;;;17.67;;
28174;SDS011;59417;44.788;10.334;2024-03-02T07:15:00;23.17;;;16.90;;
28174;SDS011;59417;44.788;10.334;2024-03-02T07:17:29;23.53;;;17.83;;
28174;SDS011;59417;44.788;10.334;2024-03-02T07:19:57;21.00;;;16.75;;
28174;SDS011;59417;44.788;10.334;2024-03-02T07:22:26;22.58;;;16.48;;
28174;SDS011;59417;44.788;10.334;2024-03-02T07:24:54;18.35;;;16.42;;
28174;SDS011;59417;44.788;10.334;2024-03-02T07:27:24;21.60;;;17.17;;
28174;SDS011;59417;44.788;10.334;2024-03-02T07:29:50;23.27;;;17.05;;
28174;SDS011;59417;44.788;10.334;2024-03-02T07:32:16;24.52;;;16.42;;
28174;SDS011;59417;44.788;10.334;2024-03-02T07:34:42;24.88;;;16.75;;
28174;SDS011;59417;44.788;10.334;2024-03-02T07:37:07;23.55;;;17.90;;
28174;SDS011;59417;44.788;10.334;2024-03-02T07:39:33;24.13;;;16.52;;
28174;SDS011;59417;44.788;10.334;2024-03-02T07:41:59;22.17;;;16.88;;
28174;SDS011;59417;44.788;10.334;2024-03-02T07:44:25;24.80;;;16.98;;
28174;SDS011;59417;44.788;10.334;2024-03-02T07:46:51;20.40;;;16.15;;
28174;SDS011;59417;44.788;10.334;2024-03-02T07:49:20;25.75;;;16.13;;
28174;SDS011;59417;44.788;10.334;2024-03-02T07:51:47;23.40;;;16.45;;
28174;SDS011;59417;44.788;10.334;2024-03-02T07:54:12;21.83;;;16.00;;
28174;SDS011;59417;44.788;10.334;2024-03-02T07:56:38;21.55;;;16.77;;
28174;SDS011;59417;44.788;10.334;2024-03-02T07:59:04;22.70;;;16.75;;
28174;SDS011;59417;44.788;10.334;2024-03-02T08:01:30;24.88;;;17.65;;
28174;SDS011;59417;44.788;10.334;2024-03-02T08:03:57;23.02;;;17.08;;
28174;SDS011;59417;44.788;10.334;2024-03-02T08:06:24;24.63;;;17.15;;
28174;SDS011;59417;44.788;10.334;2024-03-02T08:08:55;24.87;;;17.53;;
28174;SDS011;59417;44.788;10.334;2024-03-02T08:11:26;24.20;;;17.85;;
28174;SDS011;59417;44.788;10.334;2024-03-02T08:13:56;26.50;;;17.95;;
28174;SDS011;59417;44.788;10.334;2024-03-02T08:16:22;20.50;;;16.90;;
28174;SDS011;59417;44.788;10.334;2024-03-02T08:18:49;20.48;;;17.30;;
28174;SDS011;59417;44.788;10.334;2024-03-02T08:21:15;25.42;;;17.75;;
28174;SDS011;59417;44.788;10.334;2024-03-02T08:23:41;24.92;;;17.92;;
28174;SDS011;59417;44.788;10.334;2024-03-02T08:26:10;24.48;;;18.45;;
28174;SDS011;59417;44.788;10.334;2024-03-02T08:28:36;21.30;;;17.50;;
28174;SDS011;59417;44.788;10.334;2024-03-02T08:31:03;24.98;;;18.05;;
28174;SDS011;59417;44.788;10.334;2024-03-02T08:33:29;24.52;;;16.13;;
28174;SDS011;59417;44.788;10.334;2024-03-02T08:35:55;21.83;;;16.30;;
28174;SDS011;59417;44.788;10.334;2024-03-02T08:38:22;22.63;;;16.52;;
28174;SDS011;59417;44.788;10.334;2024-03-02T08:40:49;21.50;;;16.30;;
28174;SDS011;59417;44.788;10.334;2024-03-02T08:43:15;23.25;;;16.73;;
28174;SDS011;59417;44.788;10.334;2024-03-02T08:45:50;21.13;;;16.23;;
28174;SDS011;59417;44.788;10.334;2024-03-02T08:48:18;23.55;;;17.23;;
28174;SDS011;59417;44.788;10.334;2024-03-02T08:50:46;24.63;;;17.25;;
28174;SDS011;59417;44.788;10.334;2024-03-02T08:53:11;21.80;;;16.55;;
28174;SDS011;59417;44.788;10.334;2024-03-02T08:55:37;23.23;;;16.73;;
28174;SDS011;59417;44.788;10.334;2024-03-02T08:58:02;21.63;;;16.48;;
28174;SDS011;59417;44.788;10.334;2024-03-02T09:00:28;21.20;;;17.23;;
28174;SDS011;59417;44.788;10.334;2024-03-02T09:02:54;21.08;;;16.00;;
28174;SDS011;59417;44.788;10.334;2024-03-02T09:05:19;24.15;;;14.23;;
28174;SDS011;59417;44.788;10.334;2024-03-02T09:07:45;19.95;;;14.88;;
28174;SDS011;59417;44.788;10.334;2024-03-02T09:10:10;21.38;;;14.65;;
28174;SDS011;59417;44.788;10.334;2024-03-02T09:12:36;21.48;;;15.55;;
28174;SDS011;59417;44.788;10.334;2024-03-02T09:15:03;17.35;;;15.02;;
28174;SDS011;59417;44.788;10.334;2024-03-02T09:17:29;20.48;;;16.10;;
28174;SDS011;59417;44.788;10.334;2024-03-02T09:19:55;17.75;;;14.57;;
28174;SDS011;59417;44.788;10.334;2024-03-02T09:22:20;19.50;;;15.95;;
28174;SDS011;59417;44.788;10.334;2024-03-02T09:24:47;20.90;;;14.57;;
28174;SDS011;59417;44.788;10.334;2024-03-02T09:27:13;19.20;;;14.95;;
28174;SDS011;59417;44.788;10.334;2024-03-02T09:29:39;17.17;;;14.35;;
28174;SDS011;59417;44.788;10.334;2024-03-02T09:32:05;19.40;;;15.15;;
28174;SDS011;59417;44.788;10.334;2024-03-02T09:34:31;20.90;;;15.75;;
28174;SDS011;59417;44.788;10.334;2024-03-02T09:36:57;18.95;;;14.00;;
28174;SDS011;59417;44.788;10.334;2024-03-02T09:39:25;19.85;;;16.05;;
28174;SDS011;59417;44.788;10.334;2024-03-02T09:41:51;21.08;;;16.10;;
28174;SDS011;59417;44.788;10.334;2024-03-02T09:44:16;23.85;;;17.98;;
28174;SDS011;59417;44.788;10.334;2024-03-02T09:46:44;22.60;;;18.13;;
28174;SDS011;59417;44.788;10.334;2024-03-02T09:49:14;21.20;;;15.93;;
28174;SDS011;59417;44.788;10.334;2024-03-02T09:51:40;20.77;;;18.00;;
28174;SDS011;59417;44.788;10.334;2024-03-02T09:54:09;32.33;;;22.58;;
28174;SDS011;59417;44.788;10.334;2024-03-02T09:56:34;26.65;;;19.27;;
28174;SDS011;59417;44.788;10.334;2024-03-02T09:59:01;24.45;;;19.80;;
28174;SDS011;59417;44.788;10.334;2024-03-02T10:01:26;23.40;;;19.35;;
28174;SDS011;59417;44.788;10.334;2024-03-02T10:03:52;25.52;;;17.80;;
28174;SDS011;59417;44.788;10.334;2024-03-02T10:06:22;23.20;;;17.17;;
28174;SDS011;59417;44.788;10.334;2024-03-02T10:08:49;23.30;;;17.10;;
28174;SDS011;59417;44.788;10.334;2024-03-02T10:11:31;25.15;;;18.77;;
28174;SDS011;59417;44.788;10.334;2024-03-02T10:14:08;26.63;;;19.90;;
28174;SDS011;59417;44.788;10.334;2024-03-02T10:16:34;25.65;;;21.52;;
28174;SDS011;59417;44.788;10.334;2024-03-02T10:19:20;29.45;;;21.88;;
28174;SDS011;59417;44.788;10.334;2024-03-02T10:21:52;28.20;;;21.58;;
28174;SDS011;59417;44.788;10.334;2024-03-02T10:29:51;32.75;;;24.10;;
28174;SDS011;59417;44.788;10.334;2024-03-02T10:32:16;30.88;;;22.10;;
28174;SDS011;59417;44.788;10.334;2024-03-02T10:34:44;27.33;;;21.42;;
28174;SDS011;59417;44.788;10.334;2024-03-02T10:37:11;28.25;;;20.92;;
28174;SDS011;59417;44.788;10.334;2024-03-02T10:39:37;28.10;;;22.20;;
28174;SDS011;59417;44.788;10.334;2024-03-02T10:42:06;27.77;;;20.50;;
28174;SDS011;59417;44.788;10.334;2024-03-02T10:44:32;24.48;;;17.98;;
28174;SDS011;59417;44.788;10.334;2024-03-02T10:47:02;22.23;;;16.50;;
28174;SDS011;59417;44.788;10.334;2024-03-02T10:49:32;17.15;;;14.80;;
28174;SDS011;59417;44.788;10.334;2024-03-02T10:51:58;20.30;;;14.95;;
28174;SDS011;59417;44.788;10.334;2024-03-02T10:54:24;15.95;;;13.10;;
28174;SDS011;59417;44.788;10.334;2024-03-02T10:57:01;16.80;;;13.70;;
28174;SDS011;59417;44.788;10.334;2024-03-02T10:59:31;16.38;;;13.93;;
28174;SDS011;59417;44.788;10.334;2024-03-02T11:01:59;13.57;;;9.88;;
28174;SDS011;59417;44.788;10.334;2024-03-02T11:04:26;12.48;;;9.65;;
28174;SDS011;59417;44.788;10.334;2024-03-02T11:06:54;12.45;;;9.98;;
28174;SDS011;59417;44.788;10.334;2024-03-02T11:09:26;14.65;;;10.15;;
28174;SDS011;59417;44.788;10.334;2024-03-02T11:12:06;14.55;;;10.43;;
28174;SDS011;59417;44.788;10.334;2024-03-02T11:14:53;17.00;;;10.38;;
28174;SDS011;59417;44.788;10.334;2024-03-02T11:17:34;13.60;;;9.60;;
28174;SDS011;59417;44.788;10.334;2024-03-02T11:20:03;12.23;;;9.80;;
28174;SDS011;59417;44.788;10.334;2024-03-02T11:22:29;12.38;;;9.65;;
28174;SDS011;59417;44.788;10.334;2024-03-02T11:24:55;12.43;;;9.32;;
28174;SDS011;59417;44.788;10.334;2024-03-02T11:33:03;13.48;;;10.52;;
28174;SDS011;59417;44.788;10.334;2024-03-02T11:35:36;11.63;;;10.43;;
28174;SDS011;59417;44.788;10.334;2024-03-02T11:38:03;12.63;;;9.63;;
28174;SDS011;59417;44.788;10.334;2024-03-02T11:40:31;15.10;;;10.85;;
28174;SDS011;59417;44.788;10.334;2024-03-02T11:42:59;11.70;;;8.90;;
28174;SDS011;59417;44.788;10.334;2024-03-02T11:45:27;13.40;;;9.65;;
28174;SDS011;59417;44.788;10.334;2024-03-02T11:47:54;15.63;;;10.10;;
28174;SDS011;59417;44.788;10.334;2024-03-02T11:50:40;11.15;;;9.93;;
28174;SDS011;59417;44.788;10.334;2024-03-02T11:53:07;12.25;;;10.27;;
28174;SDS011;59417;44.788;10.334;2024-03-02T11:55:34;18.50;;;11.15;;
28174;SDS011;59417;44.788;10.334;2024-03-02T11:58:09;17.42;;;10.95;;
28174;SDS011;59417;44.788;10.334;2024-03-02T12:00:38;14.18;;;10.93;;
28174;SDS011;59417;44.788;10.334;2024-03-02T12:03:08;13.95;;;10.98;;
28174;SDS011;59417;44.788;10.334;2024-03-02T12:05:38;15.45;;;10.77;;
28174;SDS011;59417;44.788;10.334;2024-03-02T12:08:08;18.67;;;10.27;;
28174;SDS011;59417;44.788;10.334;2024-03-02T12:10:35;14.07;;;10.03;;
28174;SDS011;59417;44.788;10.334;2024-03-02T12:13:02;12.30;;;10.13;;
28174;SDS011;59417;44.788;10.334;2024-03-02T12:15:30;11.38;;;8.90;;
28174;SDS011;59417;44.788;10.334;2024-03-02T12:18:01;16.77;;;10.85;;
28174;SDS011;59417;44.788;10.334;2024-03-02T12:20:28;13.88;;;9.82;;
28174;SDS011;59417;44.788;10.334;2024-03-02T12:22:57;11.18;;;9.50;;
28174;SDS011;59417;44.788;10.334;2024-03-02T12:25:26;11.88;;;9.65;;
28174;SDS011;59417;44.788;10.334;2024-03-02T12:27:53;10.45;;;9.35;;
28174;SDS011;59417;44.788;10.334;2024-03-02T12:30:21;13.80;;;9.93;;
28174;SDS011;59417;44.788;10.334;2024-03-02T12:32:47;10.77;;;9.48;;
28174;SDS011;59417;44.788;10.334;2024-03-02T12:35:17;14.45;;;10.65;;
28174;SDS011;59417;44.788;10.334;2024-03-02T12:37:47;14.38;;;10.23;;
28174;SDS011;59417;44.788;10.334;2024-03-02T12:40:14;10.15;;;9.10;;
28174;SDS011;59417;44.788;10.334;2024-03-02T12:42:46;13.13;;;10.25;;
28174;SDS011;59417;44.788;10.334;2024-03-02T12:45:14;11.30;;;10.00;;
28174;SDS011;59417;44.788;10.334;2024-03-02T12:47:41;12.75;;;10.55;;
28174;SDS011;59417;44.788;10.334;2024-03-02T12:50:08;13.75;;;10.43;;
28174;SDS011;59417;44.788;10.334;2024-03-02T12:52:35;13.55;;;11.45;;
28174;SDS011;59417;44.788;10.334;2024-03-02T12:55:04;14.38;;;11.68;;
28174;SDS011;59417;44.788;10.334;2024-03-02T12:57:31;13.80;;;11.40;;
28174;SDS011;59417;44.788;10.334;2024-03-02T13:00:00;16.23;;;12.25;;
28174;SDS011;59417;44.788;10.334;2024-03-02T13:05:12;15.32;;;12.70;;
28174;SDS011;59417;44.788;10.334;2024-03-02T13:07:38;16.75;;;12.82;;
28174;SDS011;59417;44.788;10.334;2024-03-02T13:10:04;16.35;;;13.00;;
28174;SDS011;59417;44.788;10.334;2024-03-02T13:12:33;14.57;;;12.05;;
28174;SDS011;59417;44.788;10.334;2024-03-02T13:14:59;13.98;;;12.45;;
28174;SDS011;59417;44.788;10.334;2024-03-02T13:17:25;14.38;;;11.48;;
28174;SDS011;59417;44.788;10.334;2024-03-02T13:19:52;13.93;;;11.93;;
28174;SDS011;59417;44.788;10.334;2024-03-02T13:22:18;14.02;;;12.18;;
28174;SDS011;59417;44.788;10.334;2024-03-02T13:24:44;15.68;;;12.98;;
28174;SDS011;59417;44.788;10.334;2024-03-02T13:27:10;16.85;;;12.57;;
28174;SDS011;59417;44.788;10.334;2024-03-02T13:29:35;19.85;;;16.17;;
28174;SDS011;59417;44.788;10.334;2024-03-02T13:32:02;12.63;;;11.23;;
28174;SDS011;59417;44.788;10.334;2024-03-02T13:34:28;13.45;;;10.73;;
28174;SDS011;59417;44.788;10.334;2024-03-02T13:36:53;12.07;;;10.10;;
28174;SDS011;59417;44.788;10.334;2024-03-02T13:39:19;12.70;;;10.20;;
28174;SDS011;59417;44.788;10.334;2024-03-02T13:41:44;11.82;;;9.30;;
28174;SDS011;59417;44.788;10.334;2024-03-02T13:44:20;9.68;;;7.82;;
28174;SDS011;59417;44.788;10.334;2024-03-02T13:46:47;9.52;;;8.07;;
28174;SDS011;59417;44.788;10.334;2024-03-02T13:49:13;10.35;;;7.65;;
28174;SDS011;59417;44.788;10.334;2024-03-02T13:51:42;11.70;;;7.72;;
28174;SDS011;59417;44.788;10.334;2024-03-02T13:54:08;9.25;;;7.30;;
28174;SDS011;59417;44.788;10.334;2024-03-02T13:56:36;8.13;;;7.32;;
28174;SDS011;59417;44.788;10.334;2024-03-02T13:59:04;9.82;;;7.93;;
28174;SDS011;59417;44.788;10.334;2024-03-02T14:01:30;8.50;;;7.68;;
28174;SDS011;59417;44.788;10.334;2024-03-02T14:03:57;8.48;;;7.68;;
28174;SDS011;59417;44.788;10.334;2024-03-02T14:06:23;8.95;;;7.47;;
28174;SDS011;59417;44.788;10.334;2024-03-02T14:08:54;9.70;;;7.72;;
28174;SDS011;59417;44.788;10.334;2024-03-02T14:11:20;11.38;;;8.10;;
28174;SDS011;59417;44.788;10.334;2024-03-02T14:13:46;8.70;;;7.90;;
28174;SDS011;59417;44.788;10.334;2024-03-02T14:16:19;8.52;;;7.63;;
28174;SDS011;59417;44.788;10.334;2024-03-02T14:18:44;9.73;;;6.88;;
28174;SDS011;59417;44.788;10.334;2024-03-02T14:21:10;10.35;;;7.45;;
28174;SDS011;59417;44.788;10.334;2024-03-02T14:23:36;10.00;;;7.88;;
28174;SDS011;59417;44.788;10.334;2024-03-02T14:26:02;7.57;;;6.85;;
28174;SDS011;59417;44.788;10.334;2024-03-02T14:28:28;7.95;;;7.13;;
28174;SDS011;59417;44.788;10.334;2024-03-02T14:30:53;6.80;;;6.10;;
28174;SDS011;59417;44.788;10.334;2024-03-02T14:33:20;9.32;;;8.38;;
28174;SDS011;59417;44.788;10.334;2024-03-02T14:35:46;8.38;;;7.57;;
28174;SDS011;59417;44.788;10.334;2024-03-02T14:38:12;10.93;;;7.53;;
28174;SDS011;59417;44.788;10.334;2024-03-02T14:40:38;7.18;;;6.57;;